aviador You're here:

LFBM Decoded Metar

MONT-DE-MARSAN in FRANCE
Report Time2018-07-18 19:30:00
UTC Time2018-07-18 20:04:05
Flight Rules vfr VFR
Wind160° at 03 kt
W.Decomp.*RWY 09: 1.0 kt HW 2.8 kt RCW
W.Rank160° ranks 32
Current wind is below 160° avg. (4.0)
Visibility9999 m
Phenomena:Shower Rain
Clouds:Broken TCU 080 Hf
Broken 100 Hf
Expected CloudBase > 3,200 ft AGL from Temp-Dew spread
Ceiling8,000 ft
Temp26°C (ISA +11)
Dew Point18°C (61% RH)
QNH1015 hPa
Density Alt1,732 ft
Elevation207 ft
Report Wrong Elevation
Raw Report
LFBM 181930Z AUTO 16003KT 130V190 CAVOK 26/18 Q1015 TEMPO SHRA
BKN080TCU BKN100 BKN140=

Extra information for LFBM:More info

Metar Taf Metar & Taf Last 4 Metars F.Rules Stats Wind Profile Meteogram Temp Stats Airport Information Weather charts Add Link Nearby VenuesMetar ALERT Operation Metar Decoded Social comments